createdAt,value
2018-09-11T00:02:25.979Z,412.00
2018-09-11T00:05:06.242Z,379.53
2018-09-11T00:07:45.379Z,327.73
2018-09-11T00:10:24.719Z,396.60
2018-09-11T00:13:04.944Z,421.77
2018-09-11T00:15:46.523Z,414.93
2018-09-11T00:18:25.101Z,415.67
2018-09-11T00:21:06.862Z,418.90
2018-09-11T00:23:47.363Z,384.83
2018-09-11T00:26:27.118Z,293.90
2018-09-11T00:29:09.296Z,283.03
2018-09-11T00:31:48.098Z,293.27
2018-09-11T00:34:26.818Z,203.80
2018-09-11T00:37:04.901Z,108.47
2018-09-11T00:39:44.897Z,92.73
2018-09-11T00:42:25.380Z,68.07
2018-09-11T00:45:04.699Z,64.10
2018-09-11T00:47:44.656Z,66.97
2018-09-11T00:50:27.363Z,61.17
2018-09-11T00:53:08.180Z,60.57
2018-09-11T00:55:46.723Z,64.57
2018-09-11T00:58:26.577Z,68.03
2018-09-11T01:01:05.980Z,73.10
2018-09-11T01:03:45.441Z,81.10
2018-09-11T01:06:26.866Z,77.27
2018-09-11T01:09:07.425Z,74.13
2018-09-11T01:11:48.135Z,74.83
2018-09-11T01:14:27.376Z,63.20
2018-09-11T01:17:07.819Z,58.57
2018-09-11T01:19:48.499Z,60.43
2018-09-11T01:22:28.515Z,57.03
2018-09-11T01:25:07.937Z,59.23
2018-09-11T01:27:48.179Z,64.70
2018-09-11T01:30:28.996Z,57.73
2018-09-11T01:33:06.781Z,63.07
2018-09-11T01:35:47.119Z,82.27
2018-09-11T01:38:26.177Z,135.77
2018-09-11T01:41:06.604Z,88.03
2018-09-11T01:43:45.604Z,77.60
2018-09-11T01:46:25.578Z,75.47
2018-09-11T01:49:05.501Z,84.63
2018-09-11T01:51:45.580Z,84.17
2018-09-11T01:54:25.142Z,66.70
2018-09-11T01:57:04.159Z,57.13
2018-09-11T01:59:44.180Z,51.73
2018-09-11T02:02:21.740Z,48.77
2018-09-11T02:05:02.184Z,53.83
2018-09-11T02:07:42.537Z,53.57
2018-09-11T02:10:22.960Z,57.00
2018-09-11T02:13:02.782Z,52.33
2018-09-11T02:15:42.600Z,81.87
2018-09-11T02:18:22.022Z,103.07
2018-09-11T02:21:01.820Z,110.07
2018-09-11T02:23:42.142Z,103.70
2018-09-11T02:26:22.141Z,101.23
2018-09-11T02:29:01.161Z,109.27
2018-09-11T02:31:40.428Z,114.27
2018-09-11T02:34:20.404Z,99.63
2018-09-11T02:37:02.068Z,107.33
2018-09-11T02:39:41.501Z,115.27
2018-09-11T02:42:21.246Z,110.33
2018-09-11T02:45:01.986Z,113.10
2018-09-11T02:47:40.663Z,103.30
2018-09-11T02:50:19.943Z,89.20
2018-09-11T02:52:59.329Z,78.30
2018-09-11T02:55:38.341Z,86.93
2018-09-11T02:58:18.259Z,93.93
2018-09-11T03:00:56.600Z,86.07
2018-09-11T03:03:33.503Z,101.60
2018-09-11T03:06:13.201Z,116.07
2018-09-11T03:08:55.960Z,114.27
2018-09-11T03:11:35.716Z,134.53
2018-09-11T03:14:16.037Z,145.33
2018-09-11T03:16:55.820Z,161.30
2018-09-11T03:19:35.703Z,167.73
2018-09-11T03:22:12.597Z,169.93
2018-09-11T03:24:52.703Z,174.80
2018-09-11T03:27:30.613Z,181.07
2018-09-11T03:30:11.181Z,184.07
2018-09-11T03:32:52.843Z,197.53
2018-09-11T03:35:37.027Z,215.53
2018-09-11T03:38:15.918Z,218.37
2018-09-11T03:40:56.639Z,227.53
2018-09-11T03:43:35.298Z,241.23
2018-09-11T03:46:14.339Z,244.00
2018-09-11T03:48:54.058Z,253.97
2018-09-11T03:51:34.865Z,272.73
2018-09-11T03:54:13.380Z,190.17
2018-09-11T03:56:52.683Z,219.10
2018-09-11T03:59:31.760Z,237.50
2018-09-11T04:02:15.663Z,266.23
2018-09-11T04:04:55.719Z,149.77
2018-09-11T04:07:35.985Z,172.00
2018-09-11T04:10:18.184Z,187.63
2018-09-11T04:12:57.999Z,230.00
2018-09-11T04:15:38.958Z,217.07
2018-09-11T04:18:17.836Z,254.77
2018-09-11T04:20:56.326Z,234.57
2018-09-11T04:23:37.096Z,186.77
2018-09-11T04:26:14.826Z,265.87
2018-09-11T04:28:57.805Z,226.00
2018-09-11T04:31:39.140Z,238.67
2018-09-11T04:34:17.400Z,154.10
2018-09-11T04:36:57.693Z,226.10
2018-09-11T04:39:41.681Z,242.53
2018-09-11T04:42:21.763Z,239.37
2018-09-11T04:45:02.066Z,241.83
2018-09-11T04:47:46.183Z,202.07
2018-09-11T04:50:26.762Z,238.93
2018-09-11T04:53:07.701Z,331.77
2018-09-11T04:55:46.816Z,291.50
2018-09-11T04:58:25.262Z,296.97
2018-09-11T05:01:06.477Z,212.13
2018-09-11T05:03:46.726Z,172.57
2018-09-11T05:06:30.661Z,179.73
2018-09-11T05:09:15.461Z,266.80
2018-09-11T05:11:56.466Z,218.20
2018-09-11T05:14:34.010Z,255.70
2018-09-11T05:17:12.261Z,243.00
2018-09-11T05:19:54.185Z,240.80
2018-09-11T05:22:34.325Z,171.93
2018-09-11T05:25:13.036Z,181.13
2018-09-11T05:27:52.959Z,170.43
2018-09-11T05:30:35.400Z,107.33
2018-09-11T05:33:17.400Z,94.17
2018-09-11T05:36:00.160Z,76.03
2018-09-11T05:38:39.676Z,96.53
2018-09-11T05:41:22.215Z,73.53
2018-09-11T05:44:03.722Z,75.53
2018-09-11T05:46:43.266Z,76.57
2018-09-11T05:49:22.642Z,74.90
2018-09-11T05:52:01.984Z,82.27
2018-09-11T05:54:44.476Z,74.47
2018-09-11T05:57:28.517Z,94.23
2018-09-11T06:00:09.817Z,91.73
2018-09-11T06:02:51.662Z,90.77
2018-09-11T06:05:34.892Z,98.07
2018-09-11T06:08:19.201Z,122.23
2018-09-11T06:11:00.739Z,100.53
2018-09-11T06:13:37.900Z,158.10
2018-09-11T06:16:18.502Z,203.80
2018-09-11T06:18:56.655Z,127.40
2018-09-11T06:21:38.719Z,247.83
2018-09-11T06:24:16.336Z,132.00
2018-09-11T06:26:58.101Z,117.17
2018-09-11T06:29:36.806Z,151.27
2018-09-11T06:32:16.025Z,130.17
2018-09-11T06:34:55.397Z,105.07
2018-09-11T06:37:37.784Z,119.13
2018-09-11T06:40:19.997Z,67.37
2018-09-11T06:42:59.057Z,50.17
2018-09-11T06:45:39.562Z,88.67
2018-09-11T06:48:19.141Z,86.10
2018-09-11T06:50:59.239Z,99.03
2018-09-11T06:53:38.958Z,106.50
2018-09-11T06:56:19.520Z,85.23
2018-09-11T06:58:57.367Z,120.40
2018-09-11T07:01:37.759Z,79.93
2018-09-11T07:04:23.060Z,53.67
2018-09-11T07:07:01.003Z,73.43
2018-09-11T07:09:42.822Z,46.37
2018-09-11T07:12:21.467Z,43.83
2018-09-11T07:15:02.164Z,45.53
2018-09-11T07:17:41.498Z,40.17
2018-09-11T07:20:22.666Z,54.80
2018-09-11T07:23:04.063Z,62.43
2018-09-11T07:25:49.439Z,40.73
2018-09-11T07:28:27.502Z,33.40
2018-09-11T07:31:07.205Z,57.83
2018-09-11T07:33:51.920Z,34.87
2018-09-11T07:36:32.742Z,44.17
2018-09-11T07:39:14.621Z,33.80
2018-09-11T07:41:56.819Z,31.03
2018-09-11T07:44:36.578Z,37.13
2018-09-11T07:47:15.558Z,39.10
2018-09-11T07:49:52.158Z,36.60
2018-09-11T07:52:35.421Z,42.43
2018-09-11T07:55:13.961Z,43.37
2018-09-11T07:57:56.232Z,33.00
2018-09-11T08:00:37.976Z,37.47
2018-09-11T08:03:19.584Z,96.73
2018-09-11T08:05:57.318Z,73.40
2018-09-11T08:08:37.703Z,25.40
2018-09-11T08:11:16.820Z,40.50
2018-09-11T08:13:55.163Z,72.43
2018-09-11T08:16:41.402Z,26.97
2018-09-11T08:19:24.437Z,20.33
2018-09-11T08:22:03.062Z,26.67
2018-09-11T08:24:42.537Z,24.47
2018-09-11T08:27:20.337Z,30.93
2018-09-11T08:30:00.603Z,47.40
2018-09-11T08:32:40.285Z,41.83
2018-09-11T08:35:17.520Z,31.77
2018-09-11T08:37:53.980Z,24.03
2018-09-11T08:40:31.978Z,22.63
2018-09-11T08:43:09.761Z,23.20
2018-09-11T08:45:47.145Z,26.50
2018-09-11T08:48:27.579Z,25.60
2018-09-11T08:51:16.741Z,35.87
2018-09-11T08:53:59.095Z,32.50
2018-09-11T08:56:40.821Z,25.20
2018-09-11T08:59:23.596Z,40.70
2018-09-11T09:02:05.843Z,43.63
2018-09-11T09:04:47.525Z,36.53
2018-09-11T09:07:27.742Z,37.43
2018-09-11T09:10:11.727Z,44.43
2018-09-11T09:12:49.021Z,23.97
2018-09-11T09:15:30.022Z,37.13
2018-09-11T09:18:10.729Z,39.90
2018-09-11T09:20:51.863Z,22.30
2018-09-11T09:23:34.020Z,20.10
2018-09-11T09:26:11.017Z,21.70
2018-09-11T09:28:51.943Z,21.93
2018-09-11T09:31:32.738Z,20.93
2018-09-11T09:34:19.697Z,21.53
2018-09-11T09:37:04.236Z,20.33
2018-09-11T09:39:45.679Z,19.03
2018-09-11T09:42:23.921Z,18.67
2018-09-11T09:45:04.419Z,18.53
2018-09-11T09:47:45.104Z,19.77
2018-09-11T09:50:30.082Z,19.40
2018-09-11T09:53:13.965Z,19.47
2018-09-11T09:55:55.906Z,19.23
2018-09-11T09:58:37.159Z,19.67
2018-09-11T10:01:22.066Z,18.57
2018-09-11T10:03:59.920Z,17.70
2018-09-11T10:06:37.717Z,17.90
2018-09-11T10:09:17.318Z,17.17
2018-09-11T10:12:00.197Z,16.80
2018-09-11T10:14:38.343Z,16.75
2018-09-11T10:17:17.758Z,16.42
2018-09-11T10:19:56.539Z,17.00
2018-09-11T10:22:38.220Z,16.67
2018-09-11T10:25:21.705Z,17.10
2018-09-11T10:28:00.377Z,17.23
2018-09-11T10:30:41.161Z,17.62
2018-09-11T10:33:18.723Z,16.95
2018-09-11T10:35:55.803Z,17.10
2018-09-11T10:38:37.517Z,17.05
2018-09-11T10:41:18.726Z,16.85
2018-09-11T10:46:56.179Z,16.30
2018-09-11T10:49:33.617Z,15.85
2018-09-11T10:52:18.986Z,16.12
2018-09-11T10:55:03.223Z,16.23
2018-09-11T10:57:43.041Z,16.73
2018-09-11T11:00:27.017Z,16.75
2018-09-11T11:03:11.803Z,16.48
2018-09-11T11:05:54.121Z,16.73
2018-09-11T11:08:31.758Z,16.37
2018-09-11T11:11:14.566Z,17.30
2018-09-11T11:13:54.122Z,17.23
2018-09-11T11:16:35.714Z,17.98
2018-09-11T11:19:16.515Z,16.35
2018-09-11T11:21:58.059Z,17.80
2018-09-11T11:24:49.619Z,16.55
2018-09-11T11:27:34.257Z,17.73
2018-09-11T11:30:18.060Z,17.07
2018-09-11T11:33:00.581Z,17.65
2018-09-11T11:35:37.720Z,18.48
2018-09-11T11:38:18.820Z,17.52
2018-09-11T11:40:56.958Z,17.32
2018-09-11T11:43:38.938Z,17.85
2018-09-11T11:46:16.723Z,17.10
2018-09-11T11:49:02.045Z,19.95
2018-09-11T11:51:43.760Z,17.23
2018-09-11T11:54:26.146Z,23.90
2018-09-11T11:57:04.380Z,17.52
2018-09-11T11:59:46.458Z,17.67
2018-09-11T12:02:25.220Z,17.60
2018-09-11T12:05:05.981Z,18.27
2018-09-11T12:07:52.673Z,17.52
2018-09-11T12:10:30.686Z,17.60
2018-09-11T12:13:17.657Z,17.67
2018-09-11T12:15:56.862Z,17.85
2018-09-11T12:18:40.245Z,17.20
2018-09-11T12:21:19.002Z,17.23
2018-09-11T12:23:57.301Z,17.42
2018-09-11T12:26:37.490Z,17.02
2018-09-11T12:29:17.564Z,16.57
2018-09-11T12:32:01.882Z,16.80
2018-09-11T12:34:39.663Z,16.80
2018-09-11T12:37:18.946Z,17.27
2018-09-11T12:40:00.621Z,17.67
2018-09-11T12:42:38.627Z,17.77
2018-09-11T12:45:21.405Z,20.08
2018-09-11T12:48:00.742Z,20.70
2018-09-11T12:50:50.583Z,20.95
2018-09-11T12:53:34.301Z,20.35
2018-09-11T12:56:14.660Z,21.93
2018-09-11T12:58:51.685Z,23.05
2018-09-11T13:01:32.400Z,21.80
2018-09-11T13:04:09.836Z,21.33
2018-09-11T13:06:50.565Z,22.87
2018-09-11T13:09:28.673Z,22.32
2018-09-11T13:12:08.420Z,22.87
2018-09-11T13:14:53.696Z,22.17
2018-09-11T13:17:38.441Z,20.90
2018-09-11T13:20:19.257Z,19.98
2018-09-11T13:22:56.982Z,20.55
2018-09-11T13:25:34.397Z,17.98
2018-09-11T13:28:14.595Z,17.77
2018-09-11T13:30:51.798Z,17.37
2018-09-11T13:33:30.260Z,16.93
2018-09-11T13:36:11.741Z,16.70
2018-09-11T13:38:50.818Z,17.20
2018-09-11T13:41:29.361Z,16.60
2018-09-11T13:44:06.281Z,17.62
2018-09-11T13:46:47.240Z,17.37
2018-09-11T13:49:30.979Z,18.27
2018-09-11T13:52:12.400Z,17.73
2018-09-11T13:54:49.401Z,16.85
2018-09-11T13:57:28.044Z,17.05
2018-09-11T14:00:09.366Z,18.50
2018-09-11T14:50:29.342Z,16.00
2018-09-11T14:53:07.926Z,15.70
2018-09-11T15:16:38.081Z,16.32
2018-09-11T15:19:25.620Z,16.20
2018-09-11T15:22:09.666Z,16.27
2018-09-11T15:25:03.025Z,16.87
2018-09-11T15:27:42.880Z,16.05
2018-09-11T15:30:22.722Z,16.20
2018-09-11T15:33:04.821Z,16.55
2018-09-11T15:35:50.648Z,16.35
2018-09-11T15:38:29.479Z,18.25
2018-09-11T15:41:11.016Z,16.77
2018-09-11T15:43:53.572Z,18.23
2018-09-11T15:46:37.453Z,18.07
2018-09-11T15:49:18.138Z,17.65
2018-09-11T15:51:57.276Z,19.50
2018-09-11T15:54:38.220Z,19.73
2018-09-11T15:57:25.497Z,20.40
2018-09-11T16:00:10.921Z,20.88
2018-09-11T16:02:50.026Z,24.00
2018-09-11T16:05:35.960Z,22.40
2018-09-11T16:08:26.301Z,21.77
2018-09-11T16:11:06.402Z,24.27
2018-09-11T16:13:45.420Z,25.43
2018-09-11T16:16:29.654Z,26.55
2018-09-11T16:19:06.283Z,28.55
2018-09-11T16:21:55.448Z,26.62
2018-09-11T16:24:36.562Z,30.05
2018-09-11T16:27:17.143Z,26.30
2018-09-11T16:29:55.873Z,24.02
2018-09-11T16:32:40.380Z,23.90
2018-09-11T16:35:21.803Z,24.98
2018-09-11T16:38:02.818Z,22.67
2018-09-11T16:40:44.520Z,21.73
2018-09-11T16:43:28.500Z,21.87
2018-09-11T16:46:15.467Z,19.85
2018-09-11T19:00:33.810Z,25.03
2018-09-11T19:03:21.334Z,25.23
2018-09-11T19:05:58.853Z,23.60
2018-09-11T19:08:37.154Z,25.50
2018-09-11T19:11:15.336Z,23.13
2018-09-11T19:13:52.651Z,22.53
2018-09-11T19:16:31.055Z,22.03
2018-09-11T19:19:09.632Z,22.30
2018-09-11T19:21:49.233Z,20.47
2018-09-11T19:24:28.456Z,18.23
2018-09-11T19:27:08.750Z,18.97
2018-09-11T19:29:52.271Z,39.37
2018-09-11T21:08:19.874Z,22.80
2018-09-11T21:10:58.980Z,24.07
2018-09-11T21:13:36.941Z,21.80
2018-09-11T21:16:14.097Z,23.03
2018-09-11T21:18:55.385Z,22.97
2018-09-11T21:21:32.140Z,23.37
2018-09-11T21:24:10.606Z,24.23
2018-09-11T21:26:49.245Z,27.53
2018-09-11T21:29:27.205Z,42.10
2018-09-11T21:32:05.465Z,38.33
2018-09-11T21:34:46.404Z,38.57
2018-09-11T21:37:24.681Z,64.53
2018-09-11T21:40:02.998Z,73.77
2018-09-11T21:42:41.538Z,89.13
2018-09-11T21:45:19.700Z,92.70
2018-09-11T21:48:14.159Z,97.07
2018-09-11T21:50:53.219Z,90.43
2018-09-11T21:53:31.920Z,59.40
2018-09-11T21:56:10.081Z,36.47
2018-09-11T21:58:49.520Z,22.40
2018-09-11T22:01:31.443Z,23.87
2018-09-11T22:04:10.136Z,22.73
2018-09-11T22:06:48.643Z,23.67
2018-09-11T22:09:28.457Z,31.80
2018-09-11T22:12:07.881Z,32.13
2018-09-11T22:14:46.202Z,40.63
2018-09-11T22:17:24.263Z,50.07
2018-09-11T22:20:01.459Z,50.90
2018-09-11T22:22:40.562Z,45.50
2018-09-11T22:25:19.741Z,45.13
2018-09-11T22:27:56.863Z,45.57
2018-09-11T22:30:35.164Z,56.80
2018-09-11T22:33:16.640Z,61.77
2018-09-11T22:35:55.756Z,64.10
2018-09-11T22:38:36.165Z,67.37
2018-09-11T22:41:15.204Z,72.60
2018-09-11T22:43:55.500Z,74.43
2018-09-11T22:46:35.174Z,81.50
2018-09-11T22:49:14.758Z,86.53
2018-09-11T22:51:53.838Z,91.87
2018-09-11T22:54:33.483Z,105.63
2018-09-11T22:57:12.219Z,84.17
2018-09-11T22:59:54.224Z,76.10
2018-09-11T23:02:34.944Z,75.10
2018-09-11T23:05:13.516Z,53.90
2018-09-11T23:07:50.564Z,55.23
2018-09-11T23:10:30.559Z,58.27
2018-09-11T23:13:09.243Z,51.87
2018-09-11T23:15:47.622Z,46.53
2018-09-11T23:18:26.777Z,44.00
2018-09-11T23:21:05.278Z,45.23
2018-09-11T23:23:44.037Z,45.53
2018-09-11T23:26:22.727Z,40.27
2018-09-11T23:29:00.856Z,32.47
2018-09-11T23:31:39.979Z,31.40
2018-09-11T23:34:18.823Z,30.23
2018-09-11T23:36:59.536Z,28.30
2018-09-11T23:39:39.780Z,28.03
2018-09-11T23:42:18.900Z,27.63
2018-09-11T23:44:57.916Z,28.17
2018-09-11T23:47:38.465Z,27.87
2018-09-11T23:50:17.082Z,30.60
2018-09-11T23:52:55.618Z,28.67
2018-09-11T23:55:33.948Z,27.60
2018-09-11T23:58:13.696Z,27.63
